Terminal Aerodrome Forecast
Issued by NWS

Home | Current Version | Previous Version | Text Only | Print | Product List | Glossary On
Versions: 1 2 3 4 5 6 7 8 9 10 11 12
096
FTUS45 KVEF 211131
TAFEED
TAF
KEED 211131Z 2112/2212 33006KT P6SM SKC
     FM211800 36013G21KT P6SM FEW250
     FM220200 32010KT P6SM BKN250=

USA.gov is the U.S. government's official web portal to all federal, state and local government web resources and services.